Time;durP1;ratioP1;P1;durP2;ratioP2;P2;SDS_P1;SDS_P2;PMS_P1;PMS_P2;Temp;Humidity;BMP_temperature;BMP_pressure;BME280_temperature;BME280_humidity;BME280_pressure;Samples;Min_cycle;Max_cycle;Signal;HPM_P1;HPM_P2
2021/01/07 05:00:24;;;;;;;27.75;8.05;;;1.50;99.90;;;;;;5928361;23;20223;-71
2021/01/07 05:02:51;;;;;;;9.43;6.28;;;1.60;99.90;;;;;;4932757;29;20222;-71
2021/01/07 05:05:19;;;;;;;5.15;3.17;;;1.60;99.90;;;;;;4946002;28;20254;-70
2021/01/07 05:07:45;;;;;;;3.47;2.85;;;1.60;99.90;;;;;;4917452;29;20581;-71
2021/01/07 05:10:12;;;;;;;4.25;3.22;;;1.60;99.90;;;;;;4917350;29;20214;-70
2021/01/07 05:12:39;;;;;;;3.92;2.88;;;1.60;99.90;;;;;;4898071;29;20207;-70
2021/01/07 05:15:08;;;;;;;3.05;2.78;;;1.60;99.90;;;;;;4907501;29;20526;-70
2021/01/07 05:17:36;;;;;;;2.97;2.60;;;1.60;99.90;;;;;;4936313;29;20269;-70
2021/01/07 05:20:08;;;;;;;5.45;3.35;;;1.60;99.90;;;;;;4918851;29;20211;-70
2021/01/07 05:22:41;;;;;;;4.47;2.35;;;1.60;99.90;;;;;;4898173;29;20208;-71
2021/01/07 05:25:10;;;;;;;4.75;3.90;;;1.60;99.90;;;;;;4910830;29;20231;-71
2021/01/07 05:27:38;;;;;;;3.05;2.58;;;1.50;99.90;;;;;;4901958;29;20250;-70
2021/01/07 05:30:06;;;;;;;4.07;2.30;;;1.50;99.90;;;;;;4911501;29;20213;-70
2021/01/07 05:32:39;;;;;;;2.35;2.15;;;1.50;99.90;;;;;;4912691;29;20725;-70
2021/01/07 05:35:08;;;;;;;3.83;3.25;;;1.50;99.90;;;;;;4904829;28;20259;-70
2021/01/07 05:37:35;;;;;;;4.40;2.97;;;1.50;99.90;;;;;;4899369;29;20624;-70
2021/01/07 05:40:04;;;;;;;3.80;2.95;;;1.50;99.90;;;;;;4904531;29;20241;-71
2021/01/07 05:42:37;;;;;;;3.75;2.78;;;1.50;99.90;;;;;;4910831;29;20238;-69
2021/01/07 05:45:06;;;;;;;2.17;1.95;;;1.50;99.90;;;;;;4897870;29;20730;-70
2021/01/07 05:47:40;;;;;;;3.45;3.08;;;1.50;99.90;;;;;;4909310;29;20274;-69
2021/01/07 05:50:07;;;;;;;2.65;2.45;;;1.50;99.90;;;;;;4897666;29;20211;-70
2021/01/07 05:52:34;;;;;;;2.67;2.33;;;1.50;99.90;;;;;;4902593;29;20215;-70
2021/01/07 05:55:01;;;;;;;4.75;2.90;;;1.50;99.90;;;;;;4901986;29;20214;-68
2021/01/07 05:57:29;;;;;;;5.75;2.78;;;1.50;99.90;;;;;;4899187;29;20230;-68
2021/01/07 05:59:57;;;;;;;4.57;2.72;;;1.50;99.90;;;;;;4900358;29;20281;-68
2021/01/07 06:02:24;;;;;;;3.75;2.80;;;1.50;99.90;;;;;;4915130;29;20234;-69
2021/01/07 06:04:52;;;;;;;5.40;3.70;;;1.50;99.90;;;;;;4912476;29;20690;-70
2021/01/07 06:07:19;;;;;;;5.22;2.60;;;1.50;99.90;;;;;;4896343;29;20211;-70
2021/01/07 06:09:47;;;;;;;2.88;2.67;;;1.50;99.90;;;;;;4897288;29;20564;-69
2021/01/07 06:12:13;;;;;;;3.50;2.95;;;1.60;99.90;;;;;;4914300;29;20266;-70
2021/01/07 06:14:42;;;;;;;3.53;2.63;;;1.50;99.90;;;;;;4915613;29;20211;-70
2021/01/07 06:17:08;;;;;;;3.42;2.65;;;1.50;99.90;;;;;;4915460;29;20210;-69
2021/01/07 06:19:37;;;;;;;3.08;2.78;;;1.50;99.90;;;;;;4915523;29;20215;-70
2021/01/07 06:22:10;;;;;;;4.40;2.80;;;1.50;99.90;;;;;;4898100;29;20234;-70
2021/01/07 06:24:38;;;;;;;3.97;3.35;;;1.60;99.90;;;;;;4914883;29;20230;-70
2021/01/07 06:27:28;;;;;;;4.40;2.63;;;1.60;99.90;;;;;;4901718;29;20294;-70
2021/01/07 06:29:57;;;;;;;4.53;2.83;;;1.60;99.90;;;;;;4915168;28;20225;-70
2021/01/07 06:32:27;;;;;;;2.25;2.15;;;1.60;99.90;;;;;;4896630;29;20315;-69
2021/01/07 06:34:54;;;;;;;2.55;2.35;;;1.60;99.90;;;;;;4900293;29;20195;-70
2021/01/07 06:37:32;;;;;;;2.97;2.70;;;1.60;99.90;;;;;;4906127;29;20214;-70
2021/01/07 06:39:59;;;;;;;5.25;2.58;;;1.60;99.90;;;;;;4899643;29;20229;-70
2021/01/07 06:42:25;;;;;;;2.47;2.28;;;1.60;99.90;;;;;;4901976;29;20634;-70
2021/01/07 06:44:52;;;;;;;3.10;2.70;;;1.60;99.90;;;;;;4899492;29;20231;-70
2021/01/07 06:47:19;;;;;;;5.50;2.20;;;1.60;99.90;;;;;;4910222;29;20218;-69
2021/01/07 06:49:46;;;;;;;3.47;2.58;;;1.60;99.90;;;;;;4902365;29;20208;-70
2021/01/07 06:52:13;;;;;;;3.33;3.03;;;1.60;99.90;;;;;;4902067;29;20227;-72
2021/01/07 06:54:42;;;;;;;2.80;2.63;;;1.60;99.90;;;;;;4896002;29;20311;-69
2021/01/07 06:57:10;;;;;;;4.60;3.58;;;1.50;99.90;;;;;;4899864;29;20578;-68
2021/01/07 06:59:37;;;;;;;3.80;3.50;;;1.60;99.90;;;;;;4911500;29;20257;-68
2021/01/07 07:02:05;;;;;;;2.42;2.15;;;1.60;99.90;;;;;;4910608;29;20310;-68
2021/01/07 07:04:33;;;;;;;5.68;3.97;;;1.60;99.90;;;;;;4903550;29;20743;-68
2021/01/07 07:07:10;;;;;;;4.53;3.08;;;1.60;99.90;;;;;;4896686;29;20667;-68
2021/01/07 07:09:42;;;;;;;5.55;3.17;;;1.60;99.90;;;;;;4895932;29;20215;-68
2021/01/07 07:12:08;;;;;;;2.47;2.17;;;1.60;99.90;;;;;;4895923;29;20232;-67
2021/01/07 07:14:34;;;;;;;2.65;2.30;;;1.60;99.90;;;;;;4906817;29;20277;-68
2021/01/07 07:17:08;;;;;;;2.60;2.50;;;1.60;99.90;;;;;;4918737;29;20551;-67
2021/01/07 07:19:37;;;;;;;3.15;2.85;;;1.60;99.90;;;;;;4903893;29;20206;-67
2021/01/07 07:22:05;;;;;;;3.03;2.78;;;1.60;99.90;;;;;;4899553;29;20249;-67
2021/01/07 07:24:33;;;;;;;3.78;2.90;;;1.60;99.90;;;;;;4899197;29;20226;-67
2021/01/07 07:27:04;;;;;;;2.80;2.60;;;1.60;99.90;;;;;;4899539;29;20243;-67
2021/01/07 07:29:34;;;;;;;3.20;2.90;;;1.60;99.90;;;;;;4901926;29;20203;-67
2021/01/07 07:32:00;;;;;;;4.10;3.70;;;1.60;99.90;;;;;;4918323;29;20235;-67
2021/01/07 07:34:31;;;;;;;5.75;3.30;;;1.60;99.90;;;;;;4918520;29;20206;-67
2021/01/07 07:36:58;;;;;;;3.60;3.40;;;1.50;99.90;;;;;;4918538;29;20702;-67
2021/01/07 07:39:26;;;;;;;3.35;2.85;;;1.50;99.90;;;;;;4916308;29;20218;-67
2021/01/07 07:42:09;;;;;;;2.10;2.00;;;1.50;99.90;;;;;;4918302;29;20226;-68
2021/01/07 07:44:36;;;;;;;2.03;1.83;;;1.50;99.90;;;;;;4920478;29;20282;-68
2021/01/07 07:47:02;;;;;;;2.33;2.22;;;1.50;99.90;;;;;;4920292;29;20214;-67
2021/01/07 07:49:29;;;;;;;3.85;3.05;;;1.50;99.90;;;;;;4916355;28;20297;-69
2021/01/07 07:51:55;;;;;;;3.63;2.95;;;1.60;99.90;;;;;;4904650;29;20227;-68
2021/01/07 07:54:21;;;;;;;3.42;3.03;;;1.60;99.90;;;;;;4908658;29;20207;-68
2021/01/07 07:56:47;;;;;;;3.13;2.83;;;1.60;99.90;;;;;;4899083;29;20228;-68
2021/01/07 07:59:14;;;;;;;2.13;1.90;;;1.60;99.90;;;;;;4907566;29;20202;-68
2021/01/07 08:01:42;;;;;;;3.50;3.20;;;1.60;99.90;;;;;;4917570;28;20249;-68
2021/01/07 08:04:13;;;;;;;2.92;2.70;;;1.60;99.90;;;;;;4918434;29;20234;-68
2021/01/07 08:06:39;;;;;;;4.18;2.63;;;1.60;99.90;;;;;;4918320;29;20282;-68
2021/01/07 08:09:07;;;;;;;6.15;2.80;;;1.60;99.90;;;;;;4901352;29;20612;-68
2021/01/07 08:11:40;;;;;;;3.08;2.85;;;1.60;99.90;;;;;;4900284;29;20282;-67
2021/01/07 08:14:09;;;;;;;2.80;2.50;;;1.60;99.90;;;;;;4903956;29;20676;-67
2021/01/07 08:16:37;;;;;;;3.00;2.80;;;1.60;99.90;;;;;;4899193;29;20298;-67
2021/01/07 08:19:14;;;;;;;1.77;1.40;;;1.70;99.90;;;;;;4898890;29;20760;-67
2021/01/07 08:21:43;;;;;;;5.20;3.15;;;1.70;99.90;;;;;;4902888;29;20235;-67
2021/01/07 08:24:10;;;;;;;2.33;2.15;;;1.70;99.90;;;;;;4905929;29;20237;-67
2021/01/07 08:26:37;;;;;;;2.90;2.70;;;1.70;99.90;;;;;;4912376;29;20550;-67
2021/01/07 08:29:07;;;;;;;3.60;2.28;;;1.70;99.90;;;;;;4908114;29;20203;-68
2021/01/07 08:31:34;;;;;;;3.80;2.63;;;1.70;99.90;;;;;;4902927;29;20264;-67
2021/01/07 08:34:03;;;;;;;3.17;2.55;;;1.70;99.90;;;;;;4901697;29;20210;-68
2021/01/07 08:36:30;;;;;;;2.15;1.95;;;1.70;99.90;;;;;;4914177;29;20678;-68
2021/01/07 08:38:57;;;;;;;3.25;2.40;;;1.70;99.90;;;;;;4911034;29;20214;-68
2021/01/07 08:41:29;;;;;;;4.15;2.60;;;1.80;99.90;;;;;;4899771;29;20230;-69
2021/01/07 08:43:57;;;;;;;3.05;2.42;;;1.80;99.90;;;;;;4906460;29;20621;-68
2021/01/07 08:46:25;;;;;;;3.60;2.50;;;1.80;99.90;;;;;;4900257;29;20207;-67
2021/01/07 08:48:59;;;;;;;2.72;2.50;;;1.80;99.90;;;;;;4915510;29;20213;-68
2021/01/07 08:51:27;;;;;;;5.05;1.70;;;1.80;99.90;;;;;;4911048;29;20754;-66
2021/01/07 08:53:54;;;;;;;2.50;2.40;;;1.80;99.90;;;;;;4898090;29;20311;-67
2021/01/07 08:56:31;;;;;;;2.95;2.75;;;1.80;99.90;;;;;;4900826;29;20203;-67
2021/01/07 08:59:19;;;;;;;2.97;1.70;;;1.90;99.90;;;;;;4914733;29;20237;-67
2021/01/07 09:01:46;;;;;;;2.53;2.40;;;1.90;99.90;;;;;;4901330;29;20246;-67
2021/01/07 09:04:31;;;;;;;2.60;2.40;;;1.90;99.90;;;;;;4905816;29;20226;-67
2021/01/07 09:07:04;;;;;;;2.40;2.28;;;1.90;99.90;;;;;;4913299;29;20214;-66
2021/01/07 09:09:42;;;;;;;3.00;2.75;;;2.00;99.90;;;;;;4913287;29;20606;-66
2021/01/07 09:12:17;;;;;;;2.83;1.70;;;2.00;99.90;;;;;;4915957;29;20671;-66
2021/01/07 09:14:56;;;;;;;2.42;2.33;;;2.00;99.90;;;;;;4907373;29;20278;-67
2021/01/07 09:17:24;;;;;;;3.70;2.50;;;2.00;99.90;;;;;;4912265;29;20214;-66
2021/01/07 09:19:52;;;;;;;3.75;3.00;;;2.00;99.90;;;;;;4901243;29;20207;-67
2021/01/07 09:22:25;;;;;;;3.55;2.67;;;2.10;99.90;;;;;;4911028;29;20223;-67
2021/01/07 09:24:52;;;;;;;2.35;2.15;;;2.10;99.90;;;;;;4906153;29;20371;-67
2021/01/07 09:27:20;;;;;;;2.88;2.65;;;2.10;99.90;;;;;;4912701;29;20634;-67
2021/01/07 09:29:47;;;;;;;3.40;3.10;;;2.10;99.90;;;;;;4911147;29;20206;-67
2021/01/07 09:32:14;;;;;;;2.15;2.05;;;2.20;99.90;;;;;;4910814;29;20261;-67
2021/01/07 09:34:41;;;;;;;2.72;2.38;;;2.20;99.90;;;;;;4916188;29;20266;-67
2021/01/07 09:37:13;;;;;;;2.55;2.45;;;2.30;99.90;;;;;;4915586;29;20532;-67
2021/01/07 09:39:40;;;;;;;2.58;2.38;;;2.30;99.90;;;;;;4914928;29;20214;-67
2021/01/07 09:42:07;;;;;;;2.60;2.40;;;2.30;99.90;;;;;;4904006;29;20307;-67
2021/01/07 09:44:34;;;;;;;2.10;2.00;;;2.20;99.90;;;;;;4899151;29;20238;-67
2021/01/07 09:47:01;;;;;;;2.25;2.13;;;2.30;99.90;;;;;;4916153;29;20580;-66
2021/01/07 09:49:28;;;;;;;1.98;1.88;;;2.40;99.90;;;;;;4911869;29;20211;-67
2021/01/07 09:51:54;;;;;;;2.75;2.55;;;2.40;99.90;;;;;;4906681;29;20218;-67
2021/01/07 09:54:22;;;;;;;3.53;3.22;;;2.50;99.90;;;;;;4915782;29;20214;-67
2021/01/07 09:56:54;;;;;;;3.33;3.05;;;2.50;99.90;;;;;;4897083;29;20267;-67
2021/01/07 09:59:21;;;;;;;2.65;2.55;;;2.50;99.90;;;;;;4907165;29;20202;-67
2021/01/07 10:01:48;;;;;;;2.95;2.75;;;2.50;99.90;;;;;;4915469;29;20242;-68
2021/01/07 10:04:14;;;;;;;3.90;3.50;;;2.50;99.90;;;;;;4905711;29;20227;-67
2021/01/07 10:06:41;;;;;;;5.22;4.40;;;2.60;99.90;;;;;;4914672;29;20281;-68
2021/01/07 10:09:07;;;;;;;2.33;2.22;;;2.60;99.90;;;;;;4903600;29;20216;-67
2021/01/07 10:11:34;;;;;;;2.28;2.10;;;2.60;99.90;;;;;;4896857;29;20238;-67
2021/01/07 10:14:01;;;;;;;2.78;2.67;;;2.60;99.90;;;;;;4905282;29;20202;-68
2021/01/07 10:16:27;;;;;;;2.38;2.28;;;2.60;99.90;;;;;;4896898;29;20222;-68
2021/01/07 10:18:54;;;;;;;2.45;2.35;;;2.60;99.90;;;;;;4904823;29;20209;-65
2021/01/07 10:21:22;;;;;;;2.67;2.47;;;2.60;99.90;;;;;;4915550;29;20222;-66
2021/01/07 10:23:49;;;;;;;2.03;1.92;;;2.70;99.90;;;;;;4913568;29;20233;-66
2021/01/07 10:26:17;;;;;;;2.97;2.60;;;2.70;99.90;;;;;;4915906;29;20602;-67
2021/01/07 10:28:45;;;;;;;6.25;4.97;;;2.70;99.90;;;;;;4910120;29;20213;-66
2021/01/07 10:31:13;;;;;;;2.55;2.38;;;2.70;99.90;;;;;;4897149;29;20327;-66
2021/01/07 10:33:42;;;;;;;1.63;1.63;;;2.80;99.90;;;;;;4909315;29;20545;-65
2021/01/07 10:36:09;;;;;;;3.53;2.78;;;2.80;99.90;;;;;;4915748;29;20214;-66
2021/01/07 10:38:37;;;;;;;3.60;2.83;;;2.70;99.90;;;;;;4903267;29;20203;-67
2021/01/07 10:41:06;;;;;;;2.55;2.45;;;2.70;99.90;;;;;;4899606;29;20313;-67
2021/01/07 10:43:33;;;;;;;3.22;2.92;;;2.80;99.90;;;;;;4914772;28;20215;-67
2021/01/07 10:46:00;;;;;;;4.97;4.47;;;2.80;99.90;;;;;;4913287;29;20237;-67
2021/01/07 10:48:27;;;;;;;11.48;7.70;;;2.80;99.90;;;;;;4897585;29;20211;-67
2021/01/07 10:50:53;;;;;;;13.88;7.63;;;2.80;99.90;;;;;;4902654;29;20223;-66
2021/01/07 10:54:01;;;;;;;13.40;9.80;;;2.80;99.90;;;;;;4909144;29;20236;-67
2021/01/07 10:56:45;;;;;;;4.35;3.95;;;2.80;99.90;;;;;;4902862;29;20516;-66
2021/01/07 10:59:23;;;;;;;4.20;3.55;;;2.80;99.90;;;;;;4899886;29;20638;-66
2021/01/07 11:02:08;;;;;;;3.85;3.55;;;2.70;99.90;;;;;;4916304;29;20238;-67
2021/01/07 11:05:11;;;;;;;3.75;3.47;;;2.70;99.90;;;;;;4918962;29;20233;-67
2021/01/07 11:07:46;;;;;;;8.30;7.60;;;2.80;99.90;;;;;;4899189;29;20294;-66
2021/01/07 11:10:15;;;;;;;3.92;3.60;;;2.80;99.90;;;;;;4908612;29;20229;-66
2021/01/07 11:12:52;;;;;;;4.97;3.70;;;2.80;99.90;;;;;;4919015;29;20206;-67
2021/01/07 11:15:24;;;;;;;5.68;5.28;;;2.80;99.90;;;;;;4909503;29;20691;-67
2021/01/07 11:17:55;;;;;;;4.18;3.75;;;2.70;99.90;;;;;;4900693;29;20297;-67
2021/01/07 11:20:26;;;;;;;5.75;5.25;;;2.80;99.90;;;;;;4900720;29;20207;-68
2021/01/07 11:22:54;;;;;;;7.30;5.38;;;2.80;99.90;;;;;;4905329;29;20229;-67
2021/01/07 11:25:20;;;;;;;5.35;4.72;;;2.80;99.90;;;;;;4917558;29;20244;-67
2021/01/07 11:27:47;;;;;;;5.38;4.97;;;2.90;99.90;;;;;;4905694;28;20801;-67
2021/01/07 11:30:14;;;;;;;5.97;5.38;;;2.90;99.90;;;;;;4916204;29;20608;-67
2021/01/07 11:32:41;;;;;;;4.80;4.38;;;2.80;99.90;;;;;;4907646;29;20557;-67
2021/01/07 11:35:09;;;;;;;4.40;4.10;;;2.80;99.90;;;;;;4899496;29;20690;-68
2021/01/07 11:37:57;;;;;;;4.93;3.92;;;2.80;99.90;;;;;;4904706;29;20210;-67
2021/01/07 11:40:39;;;;;;;3.83;3.55;;;2.80;99.90;;;;;;4912101;29;20233;-67
2021/01/07 11:43:42;;;;;;;4.00;3.67;;;2.80;99.90;;;;;;4912532;29;20234;-67
2021/01/07 11:46:14;;;;;;;3.78;3.45;;;2.80;99.90;;;;;;4905101;29;20214;-68
2021/01/07 11:48:45;;;;;;;3.22;2.90;;;2.80;99.90;;;;;;4922635;29;20217;-68
2021/01/07 11:51:12;;;;;;;3.90;3.10;;;2.80;99.90;;;;;;4916601;29;20234;-66
2021/01/07 11:53:40;;;;;;;3.20;3.00;;;2.80;99.90;;;;;;4899079;29;20207;-66
2021/01/07 11:56:07;;;;;;;4.22;3.92;;;2.80;99.90;;;;;;4908379;29;20214;-66
2021/01/07 11:58:35;;;;;;;4.20;3.55;;;2.80;99.90;;;;;;4917478;29;20698;-67
2021/01/07 12:01:02;;;;;;;3.67;3.42;;;2.80;99.90;;;;;;4910195;29;20394;-68
2021/01/07 12:03:29;;;;;;;4.63;3.97;;;2.80;99.90;;;;;;4909567;29;20226;-67
2021/01/07 12:05:57;;;;;;;5.47;4.30;;;2.90;99.90;;;;;;4913810;29;20207;-67
2021/01/07 12:08:43;;;;;;;4.63;4.32;;;2.90;99.90;;;;;;4913915;29;20235;-67
2021/01/07 12:11:15;;;;;;;4.60;3.92;;;3.00;99.90;;;;;;4915101;29;20230;-67
2021/01/07 12:13:48;;;;;;;3.80;3.50;;;3.00;99.90;;;;;;4910350;28;20207;-67
2021/01/07 12:16:23;;;;;;;4.28;3.80;;;3.00;99.90;;;;;;4899884;29;20676;-67
2021/01/07 12:18:50;;;;;;;3.33;3.13;;;3.00;99.90;;;;;;4917894;29;20261;-67
2021/01/07 12:21:18;;;;;;;4.43;4.03;;;3.00;99.90;;;;;;4915996;29;20597;-67
2021/01/07 12:23:46;;;;;;;5.22;3.65;;;3.10;99.90;;;;;;4901332;29;20245;-68
2021/01/07 12:26:12;;;;;;;4.38;3.97;;;3.00;99.90;;;;;;4902852;29;20216;-68
2021/01/07 12:28:41;;;;;;;4.57;4.22;;;3.10;99.90;;;;;;4899672;29;20675;-68
2021/01/07 12:31:09;;;;;;;4.05;3.67;;;3.10;99.90;;;;;;4910255;29;20253;-67
2021/01/07 12:33:47;;;;;;;26.98;14.77;;;3.10;99.90;;;;;;4910711;29;20262;-67
2021/01/07 12:36:22;;;;;;;3.90;3.60;;;3.10;99.90;;;;;;4915868;29;20199;-68
2021/01/07 12:39:02;;;;;;;3.83;3.53;;;3.10;99.90;;;;;;4899543;29;20207;-67
2021/01/07 12:41:35;;;;;;;3.40;3.10;;;3.10;99.90;;;;;;4912584;29;20698;-67
2021/01/07 12:44:06;;;;;;;3.40;3.15;;;3.10;99.90;;;;;;4908540;29;20223;-68
2021/01/07 12:46:37;;;;;;;3.42;3.20;;;3.10;99.90;;;;;;4913237;29;20573;-67
2021/01/07 12:49:04;;;;;;;3.58;3.28;;;3.10;99.90;;;;;;4908887;29;20203;-67
2021/01/07 12:51:31;;;;;;;4.35;3.85;;;3.10;99.90;;;;;;4906867;29;20307;-67
2021/01/07 12:53:59;;;;;;;3.90;3.60;;;3.10;99.90;;;;;;4903933;29;20202;-67
2021/01/07 12:56:29;;;;;;;3.75;3.45;;;3.10;99.90;;;;;;4913666;29;20289;-67
2021/01/07 12:59:04;;;;;;;4.47;4.07;;;3.10;99.90;;;;;;4914550;29;20202;-66
2021/01/07 13:01:37;;;;;;;3.78;3.53;;;3.00;99.90;;;;;;4909066;29;20602;-67
2021/01/07 13:04:09;;;;;;;4.13;3.88;;;3.00;99.90;;;;;;4903769;29;20590;-66
2021/01/07 13:06:41;;;;;;;5.30;4.80;;;3.00;99.90;;;;;;4916915;29;20211;-67
2021/01/07 13:09:09;;;;;;;4.10;3.65;;;3.10;99.90;;;;;;4897254;29;20218;-67
2021/01/07 13:11:39;;;;;;;3.85;3.55;;;3.00;99.90;;;;;;4904081;29;20226;-67
2021/01/07 13:14:07;;;;;;;6.32;5.20;;;3.00;99.90;;;;;;4914845;29;20202;-67
2021/01/07 13:16:33;;;;;;;5.97;5.10;;;3.00;99.90;;;;;;4915104;29;20286;-66
2021/01/07 13:19:00;;;;;;;7.57;5.43;;;3.00;99.90;;;;;;4900664;29;20656;-66
2021/01/07 13:21:26;;;;;;;10.85;6.90;;;3.10;99.90;;;;;;4898697;29;20537;-67
2021/01/07 13:23:53;;;;;;;6.50;5.90;;;3.10;99.90;;;;;;4897709;29;20283;-67
2021/01/07 13:26:21;;;;;;;5.80;5.30;;;3.10;99.90;;;;;;4905949;29;20206;-66
2021/01/07 13:28:47;;;;;;;5.50;4.72;;;3.10;99.90;;;;;;4905639;29;20671;-66
2021/01/07 13:31:16;;;;;;;5.93;5.15;;;3.20;99.90;;;;;;4914784;29;20691;-66
2021/01/07 13:33:47;;;;;;;4.65;4.20;;;3.10;99.90;;;;;;4898874;29;20668;-66
2021/01/07 13:36:14;;;;;;;4.57;4.18;;;3.20;99.90;;;;;;4903336;29;20289;-66
2021/01/07 13:38:41;;;;;;;5.55;4.20;;;3.20;99.90;;;;;;4915757;29;20206;-66
2021/01/07 13:41:08;;;;;;;5.82;4.47;;;3.20;99.90;;;;;;4897464;29;20228;-66
2021/01/07 13:43:39;;;;;;;4.30;3.90;;;3.20;99.90;;;;;;4896774;29;20226;-67
2021/01/07 13:46:07;;;;;;;4.47;4.07;;;3.10;99.90;;;;;;4899202;29;20207;-67
2021/01/07 13:48:35;;;;;;;4.00;3.70;;;3.10;99.90;;;;;;4901966;29;20620;-66
2021/01/07 13:51:04;;;;;;;5.90;5.30;;;3.10;99.90;;;;;;4898914;29;20286;-67
2021/01/07 13:53:32;;;;;;;4.25;3.95;;;3.10;99.90;;;;;;4897525;29;20215;-66
2021/01/07 13:55:59;;;;;;;4.10;3.75;;;3.10;99.90;;;;;;4911993;29;20211;-66
2021/01/07 13:58:25;;;;;;;4.93;4.35;;;3.10;99.90;;;;;;4916142;29;20206;-67
2021/01/07 14:00:54;;;;;;;4.88;4.40;;;3.00;99.90;;;;;;4914557;29;20234;-67
2021/01/07 14:03:22;;;;;;;9.65;7.70;;;3.10;99.90;;;;;;4907357;29;20207;-67
2021/01/07 14:05:50;;;;;;;5.78;4.40;;;3.00;99.90;;;;;;4909938;29;20279;-67
2021/01/07 14:08:20;;;;;;;4.85;4.40;;;3.00;99.90;;;;;;4914344;29;20214;-67
2021/01/07 14:10:48;;;;;;;4.35;3.20;;;3.00;99.90;;;;;;4918899;29;20511;-67
2021/01/07 14:13:15;;;;;;;5.85;4.93;;;3.00;99.90;;;;;;4909806;28;20598;-67
2021/01/07 14:15:43;;;;;;;4.38;4.05;;;3.00;99.90;;;;;;4920995;29;20210;-67
2021/01/07 14:18:10;;;;;;;7.88;4.68;;;3.00;99.90;;;;;;4914051;29;20211;-67
2021/01/07 14:20:37;;;;;;;4.05;3.75;;;3.00;99.90;;;;;;4915829;29;20677;-67
2021/01/07 14:23:04;;;;;;;4.90;4.50;;;3.00;99.90;;;;;;4896752;29;20227;-66
2021/01/07 14:25:32;;;;;;;6.07;4.93;;;2.90;99.90;;;;;;4901659;29;20230;-67
2021/01/07 14:28:04;;;;;;;9.18;5.45;;;2.90;99.90;;;;;;4895676;29;20266;-67
2021/01/07 14:30:31;;;;;;;5.30;4.78;;;2.90;99.90;;;;;;4912123;29;20293;-67
2021/01/07 14:32:58;;;;;;;5.80;4.70;;;2.90;99.90;;;;;;4912270;29;20218;-67
2021/01/07 14:35:26;;;;;;;5.85;4.40;;;2.90;99.90;;;;;;4914735;29;20207;-67
2021/01/07 14:37:54;;;;;;;9.30;6.00;;;2.80;99.90;;;;;;4903598;29;20642;-67
2021/01/07 14:40:22;;;;;;;6.47;5.00;;;2.80;99.90;;;;;;4915194;29;20565;-67
2021/01/07 14:42:49;;;;;;;8.55;5.60;;;2.80;99.90;;;;;;4913957;29;20337;-67
2021/01/07 14:45:16;;;;;;;7.57;4.85;;;2.90;99.90;;;;;;4914818;29;20229;-67
2021/01/07 14:47:44;;;;;;;6.68;4.90;;;2.90;99.90;;;;;;4897486;29;20599;-67
2021/01/07 14:50:13;;;;;;;5.30;4.63;;;2.90;99.90;;;;;;4896608;29;20310;-66
2021/01/07 14:52:45;;;;;;;3.88;3.58;;;2.90;99.90;;;;;;4903245;29;20304;-67
2021/01/07 14:55:14;;;;;;;5.30;4.63;;;2.80;99.90;;;;;;4896008;29;20207;-67
2021/01/07 14:57:55;;;;;;;8.27;5.75;;;2.80;99.90;;;;;;4902404;29;20219;-67
2021/01/07 15:00:35;;;;;;;6.10;4.43;;;2.80;99.90;;;;;;4898281;29;20677;-67
2021/01/07 15:03:03;;;;;;;3.63;3.33;;;2.70;99.90;;;;;;4898769;29;20222;-67
2021/01/07 15:05:32;;;;;;;4.90;4.55;;;2.70;99.90;;;;;;4896444;29;20271;-67
2021/01/07 15:08:13;;;;;;;5.93;5.55;;;2.70;99.90;;;;;;4917327;29;20281;-67
2021/01/07 15:10:44;;;;;;;5.70;5.30;;;2.70;99.90;;;;;;4914316;29;20237;-67
2021/01/07 15:13:13;;;;;;;8.48;6.60;;;2.70;99.90;;;;;;4898092;29;20219;-68
2021/01/07 15:15:57;;;;;;;6.82;6.03;;;2.70;99.90;;;;;;4915327;29;20206;-68
2021/01/07 15:18:38;;;;;;;7.18;6.53;;;2.70;99.90;;;;;;4899907;29;20202;-67
2021/01/07 15:21:07;;;;;;;4.70;4.35;;;2.70;99.90;;;;;;4901184;29;20324;-67
2021/01/07 15:24:07;;;;;;;5.85;5.35;;;2.60;99.90;;;;;;4912659;29;20258;-67
2021/01/07 15:27:07;;;;;;;8.90;7.13;;;2.60;99.90;;;;;;4898497;29;20207;-67
2021/01/07 15:29:53;;;;;;;7.22;5.93;;;2.60;99.90;;;;;;4913847;29;20218;-67
2021/01/07 15:32:27;;;;;;;5.30;4.80;;;2.60;99.90;;;;;;4902107;29;20282;-67
2021/01/07 15:35:01;;;;;;;16.70;9.77;;;2.60;99.90;;;;;;4911844;28;20346;-67
2021/01/07 15:37:55;;;;;;;6.30;5.70;;;2.50;99.90;;;;;;4907625;29;20214;-67
2021/01/07 15:40:53;;;;;;;8.45;7.22;;;2.50;99.90;;;;;;4901463;29;20208;-67
2021/01/07 15:44:10;;;;;;;9.30;8.30;;;2.50;99.90;;;;;;4880299;29;20215;-67
2021/01/07 15:46:59;;;;;;;15.00;10.38;;;2.50;99.90;;;;;;4874997;29;20279;-67
2021/01/07 15:49:31;;;;;;;5.20;4.70;;;2.50;99.90;;;;;;4907460;29;20210;-67
2021/01/07 15:52:23;;;;;;;7.70;5.97;;;2.50;99.90;;;;;;4917977;29;20758;-67
2021/01/07 15:55:20;;;;;;;5.90;5.35;;;2.50;99.90;;;;;;4909373;29;20199;-68
2021/01/07 15:58:19;;;;;;;5.30;4.80;;;2.50;99.90;;;;;;4914728;29;20220;-68
2021/01/07 16:00:49;;;;;;;7.13;5.40;;;2.50;99.90;;;;;;4917611;29;20290;-68
2021/01/07 16:03:27;;;;;;;5.38;4.72;;;2.50;99.90;;;;;;4914161;29;20207;-68
2021/01/07 16:05:58;;;;;;;5.07;4.57;;;2.50;99.90;;;;;;4917671;29;20237;-68
2021/01/07 16:08:27;;;;;;;5.60;4.57;;;2.50;99.90;;;;;;4916466;29;20209;-68
2021/01/07 16:10:54;;;;;;;8.25;5.53;;;2.50;99.90;;;;;;4905344;29;20232;-68
2021/01/07 16:13:21;;;;;;;8.48;6.15;;;2.50;99.90;;;;;;4911795;29;20239;-68
2021/01/07 16:15:48;;;;;;;5.47;5.03;;;2.50;99.90;;;;;;4899010;29;20207;-67
2021/01/07 16:18:16;;;;;;;8.57;6.47;;;2.50;99.90;;;;;;4913689;29;20203;-68
2021/01/07 16:20:45;;;;;;;8.15;6.25;;;2.50;99.90;;;;;;4900051;29;20231;-69
2021/01/07 16:23:23;;;;;;;6.35;5.38;;;2.50;99.90;;;;;;4898955;29;20211;-69
2021/01/07 16:25:58;;;;;;;6.35;5.60;;;2.50;99.90;;;;;;4907870;29;20273;-68
2021/01/07 16:28:25;;;;;;;6.47;5.70;;;2.50;99.90;;;;;;4899773;29;20215;-68
2021/01/07 16:30:54;;;;;;;7.93;6.57;;;2.50;99.90;;;;;;4901094;29;20347;-68
2021/01/07 16:33:20;;;;;;;7.53;5.57;;;2.50;99.90;;;;;;4898363;29;20219;-69
2021/01/07 16:35:50;;;;;;;11.05;9.75;;;2.50;99.90;;;;;;4906231;29;20881;-69
2021/01/07 16:38:17;;;;;;;12.02;7.85;;;2.50;99.90;;;;;;4917021;29;20583;-69
2021/01/07 16:40:44;;;;;;;7.47;6.57;;;2.40;99.90;;;;;;4911682;29;20707;-69
2021/01/07 16:43:11;;;;;;;7.93;5.80;;;2.50;99.90;;;;;;4916578;29;20225;-69
2021/01/07 16:45:38;;;;;;;6.53;5.70;;;2.50;99.90;;;;;;4913593;29;20672;-69
2021/01/07 16:48:05;;;;;;;6.22;5.07;;;2.50;99.90;;;;;;4916036;29;20214;-69
2021/01/07 16:50:31;;;;;;;6.35;5.43;;;2.40;99.90;;;;;;4912157;29;20591;-70
2021/01/07 16:52:58;;;;;;;6.03;5.07;;;2.50;99.90;;;;;;4909910;29;20588;-69
2021/01/07 16:55:24;;;;;;;6.68;5.97;;;2.50;99.90;;;;;;4902322;29;20282;-69
2021/01/07 16:57:51;;;;;;;7.72;6.40;;;2.50;99.90;;;;;;4908867;29;20234;-69
2021/01/07 17:00:18;;;;;;;8.02;5.55;;;2.50;99.90;;;;;;4911652;29;20207;-69
2021/01/07 17:02:45;;;;;;;6.45;4.85;;;2.50;99.90;;;;;;4904593;29;20217;-69
2021/01/07 17:05:12;;;;;;;8.77;4.60;;;2.50;99.90;;;;;;4912746;28;20231;-69
2021/01/07 17:07:38;;;;;;;7.72;6.10;;;2.50;99.90;;;;;;4917810;29;20539;-69
2021/01/07 17:10:06;;;;;;;5.95;5.40;;;2.40;99.90;;;;;;4922060;29;20206;-69
2021/01/07 17:12:32;;;;;;;7.25;5.93;;;2.50;99.90;;;;;;4905448;29;20656;-70
2021/01/07 17:14:58;;;;;;;6.03;4.85;;;2.40;99.90;;;;;;4910797;29;20195;-70
2021/01/07 17:17:24;;;;;;;4.85;4.45;;;2.50;99.90;;;;;;4898230;29;20211;-70
2021/01/07 17:19:51;;;;;;;6.68;5.53;;;2.40;99.90;;;;;;4898742;29;20207;-69
2021/01/07 17:22:17;;;;;;;7.60;6.95;;;2.40;99.90;;;;;;4897970;29;20235;-69
2021/01/07 17:24:43;;;;;;;8.10;6.20;;;2.40;99.90;;;;;;4913388;29;20219;-69
2021/01/07 17:27:11;;;;;;;6.85;6.15;;;2.50;99.90;;;;;;4897730;29;20226;-70
2021/01/07 17:29:38;;;;;;;7.95;6.13;;;2.40;99.90;;;;;;4913936;28;20218;-69
2021/01/07 17:32:06;;;;;;;9.85;6.03;;;2.50;99.90;;;;;;4897657;29;20231;-69
2021/01/07 17:34:32;;;;;;;8.82;5.60;;;2.50;99.90;;;;;;4900587;29;20565;-69
2021/01/07 17:37:02;;;;;;;5.93;5.32;;;2.50;99.90;;;;;;4904526;29;20210;-69
2021/01/07 17:39:29;;;;;;;8.15;6.00;;;2.50;99.90;;;;;;4916327;29;20225;-69
2021/01/07 17:41:55;;;;;;;9.60;7.72;;;2.50;99.90;;;;;;4916533;29;20595;-69
2021/01/07 17:44:21;;;;;;;8.70;6.00;;;2.50;99.90;;;;;;4916285;29;20718;-69
2021/01/07 17:46:48;;;;;;;7.63;6.82;;;2.50;99.90;;;;;;4916712;29;20213;-69
2021/01/07 17:49:14;;;;;;;8.82;7.50;;;2.50;99.90;;;;;;4911108;29;20603;-69
2021/01/07 17:51:40;;;;;;;7.47;6.60;;;2.40;99.90;;;;;;4908061;29;20229;-68
2021/01/07 17:54:08;;;;;;;9.55;7.10;;;2.40;99.90;;;;;;4905192;28;20215;-68
2021/01/07 17:56:35;;;;;;;10.27;6.80;;;2.40;99.90;;;;;;4910531;29;20739;-69
2021/01/07 17:59:02;;;;;;;11.27;7.20;;;2.50;99.90;;;;;;4912747;29;20210;-69
2021/01/07 18:01:31;;;;;;;6.95;5.80;;;2.50;99.90;;;;;;4907527;29;20235;-69
2021/01/07 18:04:00;;;;;;;5.85;5.35;;;2.50;99.90;;;;;;4901432;29;20207;-69
2021/01/07 18:06:30;;;;;;;7.57;6.20;;;2.40;99.90;;;;;;4897045;29;20290;-69
2021/01/07 18:08:57;;;;;;;6.95;6.20;;;2.50;99.90;;;;;;4897375;29;20244;-69
2021/01/07 18:11:24;;;;;;;7.40;6.00;;;2.40;99.90;;;;;;4914554;29;20699;-69
2021/01/07 18:13:50;;;;;;;8.10;6.30;;;2.50;99.90;;;;;;4915116;29;20227;-69